sensor_id;sensor_type;location;lat;lon;timestamp;P1;durP1;ratioP1;P2;durP2;ratioP2
35990;SDS011;22064;42.672;23.282;2023-05-07T00:02:39;23.50;;;13.27;;
35990;SDS011;22064;42.672;23.282;2023-05-07T00:05:25;22.98;;;12.68;;
35990;SDS011;22064;42.672;23.282;2023-05-07T00:08:11;22.77;;;12.68;;
35990;SDS011;22064;42.672;23.282;2023-05-07T00:10:58;22.65;;;12.02;;
35990;SDS011;22064;42.672;23.282;2023-05-07T00:13:43;23.27;;;12.15;;
35990;SDS011;22064;42.672;23.282;2023-05-07T00:16:29;21.92;;;11.65;;
35990;SDS011;22064;42.672;23.282;2023-05-07T00:19:15;19.30;;;11.32;;
35990;SDS011;22064;42.672;23.282;2023-05-07T00:22:01;22.25;;;11.40;;
35990;SDS011;22064;42.672;23.282;2023-05-07T00:24:47;22.73;;;11.73;;
35990;SDS011;22064;42.672;23.282;2023-05-07T00:27:33;22.30;;;11.15;;
35990;SDS011;22064;42.672;23.282;2023-05-07T00:30:19;21.48;;;11.15;;
35990;SDS011;22064;42.672;23.282;2023-05-07T00:33:06;19.48;;;11.52;;
35990;SDS011;22064;42.672;23.282;2023-05-07T00:35:52;24.02;;;12.65;;
35990;SDS011;22064;42.672;23.282;2023-05-07T00:38:39;23.02;;;12.02;;
35990;SDS011;22064;42.672;23.282;2023-05-07T00:41:26;21.55;;;11.55;;
35990;SDS011;22064;42.672;23.282;2023-05-07T00:44:12;22.98;;;12.10;;
35990;SDS011;22064;42.672;23.282;2023-05-07T00:46:58;21.38;;;12.43;;
35990;SDS011;22064;42.672;23.282;2023-05-07T00:49:48;20.75;;;10.60;;
35990;SDS011;22064;42.672;23.282;2023-05-07T00:52:34;19.45;;;10.40;;
35990;SDS011;22064;42.672;23.282;2023-05-07T00:55:21;18.98;;;9.95;;
35990;SDS011;22064;42.672;23.282;2023-05-07T00:58:08;17.13;;;9.70;;
35990;SDS011;22064;42.672;23.282;2023-05-07T01:00:54;19.35;;;10.57;;
35990;SDS011;22064;42.672;23.282;2023-05-07T01:03:40;18.30;;;9.98;;
35990;SDS011;22064;42.672;23.282;2023-05-07T01:06:26;19.08;;;9.18;;
35990;SDS011;22064;42.672;23.282;2023-05-07T01:09:14;20.92;;;10.23;;
35990;SDS011;22064;42.672;23.282;2023-05-07T01:12:00;19.63;;;10.50;;
35990;SDS011;22064;42.672;23.282;2023-05-07T01:14:46;18.60;;;9.90;;
35990;SDS011;22064;42.672;23.282;2023-05-07T01:17:35;18.77;;;9.95;;
35990;SDS011;22064;42.672;23.282;2023-05-07T01:20:23;18.58;;;10.57;;
35990;SDS011;22064;42.672;23.282;2023-05-07T01:23:11;19.88;;;11.10;;
35990;SDS011;22064;42.672;23.282;2023-05-07T01:25:58;24.67;;;11.60;;
35990;SDS011;22064;42.672;23.282;2023-05-07T01:28:46;21.00;;;11.70;;
35990;SDS011;22064;42.672;23.282;2023-05-07T01:31:32;22.30;;;12.80;;
35990;SDS011;22064;42.672;23.282;2023-05-07T01:34:20;22.92;;;12.63;;
35990;SDS011;22064;42.672;23.282;2023-05-07T01:37:07;24.23;;;13.55;;
35990;SDS011;22064;42.672;23.282;2023-05-07T01:39:54;26.33;;;14.65;;
35990;SDS011;22064;42.672;23.282;2023-05-07T01:42:41;25.15;;;14.75;;
35990;SDS011;22064;42.672;23.282;2023-05-07T01:45:29;23.05;;;13.52;;
35990;SDS011;22064;42.672;23.282;2023-05-07T01:48:17;23.55;;;13.52;;
35990;SDS011;22064;42.672;23.282;2023-05-07T01:51:04;24.42;;;12.80;;
35990;SDS011;22064;42.672;23.282;2023-05-07T01:53:52;25.23;;;12.82;;
35990;SDS011;22064;42.672;23.282;2023-05-07T01:56:40;23.73;;;12.73;;
35990;SDS011;22064;42.672;23.282;2023-05-07T01:59:27;22.42;;;11.77;;
35990;SDS011;22064;42.672;23.282;2023-05-07T02:02:13;21.85;;;11.77;;
35990;SDS011;22064;42.672;23.282;2023-05-07T02:05:01;21.95;;;12.27;;
35990;SDS011;22064;42.672;23.282;2023-05-07T02:07:48;23.30;;;11.05;;
35990;SDS011;22064;42.672;23.282;2023-05-07T02:10:35;22.40;;;10.77;;
35990;SDS011;22064;42.672;23.282;2023-05-07T02:13:21;18.77;;;10.43;;
35990;SDS011;22064;42.672;23.282;2023-05-07T02:16:08;20.77;;;11.43;;
35990;SDS011;22064;42.672;23.282;2023-05-07T02:18:54;23.30;;;11.13;;
35990;SDS011;22064;42.672;23.282;2023-05-07T02:21:40;18.75;;;10.18;;
35990;SDS011;22064;42.672;23.282;2023-05-07T02:24:26;19.92;;;11.35;;
35990;SDS011;22064;42.672;23.282;2023-05-07T02:27:12;20.65;;;10.77;;
35990;SDS011;22064;42.672;23.282;2023-05-07T02:29:58;22.42;;;11.82;;
35990;SDS011;22064;42.672;23.282;2023-05-07T02:32:44;19.20;;;10.60;;
35990;SDS011;22064;42.672;23.282;2023-05-07T02:35:30;21.85;;;11.18;;
35990;SDS011;22064;42.672;23.282;2023-05-07T02:38:16;20.08;;;10.55;;
35990;SDS011;22064;42.672;23.282;2023-05-07T02:41:03;20.67;;;11.75;;
35990;SDS011;22064;42.672;23.282;2023-05-07T02:43:50;32.00;;;14.10;;
35990;SDS011;22064;42.672;23.282;2023-05-07T02:46:36;22.45;;;12.18;;
35990;SDS011;22064;42.672;23.282;2023-05-07T02:49:27;22.67;;;12.93;;
35990;SDS011;22064;42.672;23.282;2023-05-07T02:52:13;23.85;;;13.27;;
35990;SDS011;22064;42.672;23.282;2023-05-07T02:54:59;22.42;;;12.60;;
35990;SDS011;22064;42.672;23.282;2023-05-07T02:57:45;24.90;;;13.75;;
35990;SDS011;22064;42.672;23.282;2023-05-07T03:00:32;26.77;;;14.70;;
35990;SDS011;22064;42.672;23.282;2023-05-07T03:03:29;26.45;;;14.70;;
35990;SDS011;22064;42.672;23.282;2023-05-07T03:06:15;25.98;;;14.23;;
35990;SDS011;22064;42.672;23.282;2023-05-07T03:09:01;26.95;;;15.32;;
35990;SDS011;22064;42.672;23.282;2023-05-07T03:11:48;24.13;;;14.43;;
35990;SDS011;22064;42.672;23.282;2023-05-07T03:14:34;25.15;;;13.77;;
35990;SDS011;22064;42.672;23.282;2023-05-07T03:17:21;24.63;;;13.60;;
35990;SDS011;22064;42.672;23.282;2023-05-07T03:20:07;23.77;;;13.05;;
35990;SDS011;22064;42.672;23.282;2023-05-07T03:22:55;28.23;;;13.15;;
35990;SDS011;22064;42.672;23.282;2023-05-07T03:25:41;26.15;;;13.98;;
35990;SDS011;22064;42.672;23.282;2023-05-07T03:28:27;24.08;;;12.85;;
35990;SDS011;22064;42.672;23.282;2023-05-07T03:31:18;24.45;;;12.70;;
35990;SDS011;22064;42.672;23.282;2023-05-07T03:34:04;25.52;;;13.60;;
35990;SDS011;22064;42.672;23.282;2023-05-07T03:36:50;24.20;;;13.30;;
35990;SDS011;22064;42.672;23.282;2023-05-07T03:39:38;25.05;;;13.38;;
35990;SDS011;22064;42.672;23.282;2023-05-07T03:42:24;20.35;;;12.32;;
35990;SDS011;22064;42.672;23.282;2023-05-07T03:45:11;21.98;;;12.32;;
35990;SDS011;22064;42.672;23.282;2023-05-07T03:48:01;22.63;;;12.27;;
35990;SDS011;22064;42.672;23.282;2023-05-07T03:50:47;19.75;;;10.60;;
35990;SDS011;22064;42.672;23.282;2023-05-07T03:53:35;22.38;;;10.63;;
35990;SDS011;22064;42.672;23.282;2023-05-07T03:56:21;20.70;;;10.55;;
35990;SDS011;22064;42.672;23.282;2023-05-07T03:59:13;20.55;;;10.27;;
35990;SDS011;22064;42.672;23.282;2023-05-07T04:02:00;17.23;;;9.60;;
35990;SDS011;22064;42.672;23.282;2023-05-07T04:04:48;16.33;;;9.02;;
35990;SDS011;22064;42.672;23.282;2023-05-07T04:07:35;17.02;;;8.40;;
35990;SDS011;22064;42.672;23.282;2023-05-07T04:10:21;19.00;;;9.27;;
35990;SDS011;22064;42.672;23.282;2023-05-07T04:13:09;19.30;;;10.10;;
35990;SDS011;22064;42.672;23.282;2023-05-07T04:15:56;17.77;;;9.48;;
35990;SDS011;22064;42.672;23.282;2023-05-07T04:18:42;17.50;;;9.43;;
35990;SDS011;22064;42.672;23.282;2023-05-07T04:21:29;20.95;;;12.23;;
35990;SDS011;22064;42.672;23.282;2023-05-07T04:24:16;20.33;;;11.05;;
35990;SDS011;22064;42.672;23.282;2023-05-07T04:27:03;21.50;;;11.63;;
35990;SDS011;22064;42.672;23.282;2023-05-07T04:29:49;21.33;;;12.02;;
35990;SDS011;22064;42.672;23.282;2023-05-07T04:32:37;19.65;;;11.07;;
35990;SDS011;22064;42.672;23.282;2023-05-07T04:35:25;22.45;;;11.95;;
35990;SDS011;22064;42.672;23.282;2023-05-07T04:38:11;21.58;;;12.18;;
35990;SDS011;22064;42.672;23.282;2023-05-07T04:40:58;25.15;;;12.27;;
35990;SDS011;22064;42.672;23.282;2023-05-07T04:43:52;22.00;;;12.35;;
35990;SDS011;22064;42.672;23.282;2023-05-07T04:46:40;23.42;;;12.20;;
35990;SDS011;22064;42.672;23.282;2023-05-07T04:49:26;19.20;;;11.02;;
35990;SDS011;22064;42.672;23.282;2023-05-07T04:52:14;22.60;;;11.05;;
35990;SDS011;22064;42.672;23.282;2023-05-07T04:55:01;20.10;;;11.98;;
35990;SDS011;22064;42.672;23.282;2023-05-07T04:57:52;20.77;;;11.63;;
35990;SDS011;22064;42.672;23.282;2023-05-07T05:00:39;19.60;;;11.00;;
35990;SDS011;22064;42.672;23.282;2023-05-07T05:03:26;19.95;;;11.13;;
35990;SDS011;22064;42.672;23.282;2023-05-07T05:06:12;20.10;;;11.80;;
35990;SDS011;22064;42.672;23.282;2023-05-07T05:08:58;23.98;;;12.80;;
35990;SDS011;22064;42.672;23.282;2023-05-07T05:11:45;21.67;;;11.88;;
35990;SDS011;22064;42.672;23.282;2023-05-07T05:14:31;19.83;;;10.93;;
35990;SDS011;22064;42.672;23.282;2023-05-07T05:17:17;19.92;;;10.35;;
35990;SDS011;22064;42.672;23.282;2023-05-07T05:20:04;21.38;;;10.77;;
35990;SDS011;22064;42.672;23.282;2023-05-07T05:22:51;20.60;;;10.95;;
35990;SDS011;22064;42.672;23.282;2023-05-07T05:25:38;18.98;;;10.35;;
35990;SDS011;22064;42.672;23.282;2023-05-07T05:28:26;18.65;;;10.60;;
35990;SDS011;22064;42.672;23.282;2023-05-07T05:31:13;20.50;;;11.38;;
35990;SDS011;22064;42.672;23.282;2023-05-07T05:34:00;20.98;;;11.02;;
35990;SDS011;22064;42.672;23.282;2023-05-07T05:36:46;18.50;;;10.65;;
35990;SDS011;22064;42.672;23.282;2023-05-07T05:39:33;19.92;;;10.48;;
35990;SDS011;22064;42.672;23.282;2023-05-07T05:42:20;19.67;;;10.48;;
35990;SDS011;22064;42.672;23.282;2023-05-07T05:45:06;18.23;;;9.93;;
35990;SDS011;22064;42.672;23.282;2023-05-07T05:47:55;20.45;;;10.43;;
35990;SDS011;22064;42.672;23.282;2023-05-07T05:50:42;16.23;;;9.80;;
35990;SDS011;22064;42.672;23.282;2023-05-07T05:53:29;21.17;;;10.82;;
35990;SDS011;22064;42.672;23.282;2023-05-07T05:56:15;20.25;;;10.70;;
35990;SDS011;22064;42.672;23.282;2023-05-07T05:59:01;19.38;;;10.63;;
35990;SDS011;22064;42.672;23.282;2023-05-07T06:01:48;18.63;;;11.18;;
35990;SDS011;22064;42.672;23.282;2023-05-07T06:04:34;16.40;;;10.05;;
35990;SDS011;22064;42.672;23.282;2023-05-07T06:07:21;21.58;;;10.57;;
35990;SDS011;22064;42.672;23.282;2023-05-07T06:10:07;18.05;;;10.70;;
35990;SDS011;22064;42.672;23.282;2023-05-07T06:12:53;19.52;;;10.88;;
35990;SDS011;22064;42.672;23.282;2023-05-07T06:15:39;22.85;;;9.98;;
35990;SDS011;22064;42.672;23.282;2023-05-07T06:18:29;16.75;;;9.32;;
35990;SDS011;22064;42.672;23.282;2023-05-07T06:21:15;20.33;;;10.50;;
35990;SDS011;22064;42.672;23.282;2023-05-07T06:24:01;17.95;;;9.90;;
35990;SDS011;22064;42.672;23.282;2023-05-07T06:26:47;18.25;;;10.15;;
35990;SDS011;22064;42.672;23.282;2023-05-07T06:29:33;16.90;;;9.40;;
35990;SDS011;22064;42.672;23.282;2023-05-07T06:32:21;19.27;;;9.48;;
35990;SDS011;22064;42.672;23.282;2023-05-07T06:35:07;16.05;;;9.15;;
35990;SDS011;22064;42.672;23.282;2023-05-07T06:37:56;18.40;;;9.43;;
35990;SDS011;22064;42.672;23.282;2023-05-07T06:40:48;17.67;;;9.20;;
35990;SDS011;22064;42.672;23.282;2023-05-07T06:43:35;15.50;;;8.60;;
35990;SDS011;22064;42.672;23.282;2023-05-07T06:46:39;16.17;;;8.40;;
35990;SDS011;22064;42.672;23.282;2023-05-07T06:49:26;20.05;;;8.70;;
35990;SDS011;22064;42.672;23.282;2023-05-07T06:52:13;17.08;;;9.20;;
35990;SDS011;22064;42.672;23.282;2023-05-07T06:54:59;17.48;;;9.30;;
35990;SDS011;22064;42.672;23.282;2023-05-07T06:57:46;18.10;;;9.77;;
35990;SDS011;22064;42.672;23.282;2023-05-07T07:00:32;13.88;;;8.52;;
35990;SDS011;22064;42.672;23.282;2023-05-07T07:03:18;15.45;;;8.80;;
35990;SDS011;22064;42.672;23.282;2023-05-07T07:06:05;15.60;;;8.48;;
35990;SDS011;22064;42.672;23.282;2023-05-07T07:08:51;15.90;;;8.82;;
35990;SDS011;22064;42.672;23.282;2023-05-07T07:11:37;15.88;;;8.90;;
35990;SDS011;22064;42.672;23.282;2023-05-07T07:14:24;20.25;;;9.45;;
35990;SDS011;22064;42.672;23.282;2023-05-07T07:17:12;16.20;;;9.00;;
35990;SDS011;22064;42.672;23.282;2023-05-07T07:19:58;16.92;;;9.20;;
35990;SDS011;22064;42.672;23.282;2023-05-07T07:22:44;15.93;;;8.90;;
35990;SDS011;22064;42.672;23.282;2023-05-07T07:25:30;14.73;;;8.57;;
35990;SDS011;22064;42.672;23.282;2023-05-07T07:28:16;14.20;;;8.23;;
35990;SDS011;22064;42.672;23.282;2023-05-07T07:31:03;15.60;;;8.13;;
35990;SDS011;22064;42.672;23.282;2023-05-07T07:33:50;15.95;;;7.97;;
35990;SDS011;22064;42.672;23.282;2023-05-07T07:36:36;13.95;;;7.95;;
35990;SDS011;22064;42.672;23.282;2023-05-07T07:39:22;11.65;;;7.57;;
35990;SDS011;22064;42.672;23.282;2023-05-07T07:42:11;15.18;;;7.10;;
35990;SDS011;22064;42.672;23.282;2023-05-07T07:44:58;12.15;;;6.82;;
35990;SDS011;22064;42.672;23.282;2023-05-07T07:47:46;14.68;;;7.18;;
35990;SDS011;22064;42.672;23.282;2023-05-07T07:50:32;12.10;;;7.32;;
35990;SDS011;22064;42.672;23.282;2023-05-07T07:53:18;13.20;;;7.43;;
35990;SDS011;22064;42.672;23.282;2023-05-07T07:56:05;15.82;;;7.95;;
35990;SDS011;22064;42.672;23.282;2023-05-07T07:58:53;16.63;;;9.02;;
35990;SDS011;22064;42.672;23.282;2023-05-07T08:01:39;13.30;;;7.43;;
35990;SDS011;22064;42.672;23.282;2023-05-07T08:04:25;16.77;;;9.00;;
35990;SDS011;22064;42.672;23.282;2023-05-07T08:07:12;14.55;;;8.48;;
35990;SDS011;22064;42.672;23.282;2023-05-07T08:10:01;16.30;;;8.63;;
35990;SDS011;22064;42.672;23.282;2023-05-07T08:12:48;14.57;;;8.57;;
35990;SDS011;22064;42.672;23.282;2023-05-07T08:15:35;14.70;;;7.65;;
35990;SDS011;22064;42.672;23.282;2023-05-07T08:18:20;13.60;;;7.35;;
35990;SDS011;22064;42.672;23.282;2023-05-07T08:21:09;12.70;;;7.10;;
35990;SDS011;22064;42.672;23.282;2023-05-07T08:23:54;10.88;;;6.45;;
35990;SDS011;22064;42.672;23.282;2023-05-07T08:26:41;12.52;;;6.63;;
35990;SDS011;22064;42.672;23.282;2023-05-07T08:29:29;13.80;;;7.68;;
35990;SDS011;22064;42.672;23.282;2023-05-07T08:32:15;12.75;;;6.85;;
35990;SDS011;22064;42.672;23.282;2023-05-07T08:35:01;13.75;;;6.78;;
35990;SDS011;22064;42.672;23.282;2023-05-07T08:37:47;13.68;;;7.35;;
35990;SDS011;22064;42.672;23.282;2023-05-07T08:40:36;12.32;;;7.30;;
35990;SDS011;22064;42.672;23.282;2023-05-07T08:43:26;15.25;;;7.78;;
35990;SDS011;22064;42.672;23.282;2023-05-07T08:46:15;13.85;;;6.90;;
35990;SDS011;22064;42.672;23.282;2023-05-07T08:49:05;13.88;;;7.63;;
35990;SDS011;22064;42.672;23.282;2023-05-07T08:51:51;13.40;;;7.55;;
35990;SDS011;22064;42.672;23.282;2023-05-07T08:54:38;10.85;;;6.13;;
35990;SDS011;22064;42.672;23.282;2023-05-07T08:57:27;14.17;;;6.73;;
35990;SDS011;22064;42.672;23.282;2023-05-07T09:00:13;11.60;;;6.72;;
35990;SDS011;22064;42.672;23.282;2023-05-07T09:03:01;16.30;;;8.02;;
35990;SDS011;22064;42.672;23.282;2023-05-07T09:05:47;12.85;;;7.60;;
35990;SDS011;22064;42.672;23.282;2023-05-07T09:08:36;15.40;;;7.88;;
35990;SDS011;22064;42.672;23.282;2023-05-07T09:11:24;12.45;;;7.55;;
35990;SDS011;22064;42.672;23.282;2023-05-07T09:14:12;14.25;;;9.52;;
35990;SDS011;22064;42.672;23.282;2023-05-07T09:17:01;11.95;;;7.68;;
35990;SDS011;22064;42.672;23.282;2023-05-07T09:19:47;16.08;;;7.72;;
35990;SDS011;22064;42.672;23.282;2023-05-07T09:22:37;13.35;;;7.00;;
35990;SDS011;22064;42.672;23.282;2023-05-07T09:25:27;13.48;;;7.15;;
35990;SDS011;22064;42.672;23.282;2023-05-07T09:28:15;10.13;;;6.60;;
35990;SDS011;22064;42.672;23.282;2023-05-07T09:31:01;7.65;;;5.50;;
35990;SDS011;22064;42.672;23.282;2023-05-07T09:33:47;9.32;;;5.82;;
35990;SDS011;22064;42.672;23.282;2023-05-07T09:36:33;9.90;;;6.55;;
35990;SDS011;22064;42.672;23.282;2023-05-07T09:39:21;8.25;;;5.90;;
35990;SDS011;22064;42.672;23.282;2023-05-07T09:42:08;9.93;;;5.93;;
35990;SDS011;22064;42.672;23.282;2023-05-07T09:44:55;8.20;;;5.63;;
35990;SDS011;22064;42.672;23.282;2023-05-07T09:47:44;10.50;;;6.30;;
35990;SDS011;22064;42.672;23.282;2023-05-07T09:50:36;10.73;;;5.43;;
35990;SDS011;22064;42.672;23.282;2023-05-07T09:53:34;9.82;;;5.50;;
35990;SDS011;22064;42.672;23.282;2023-05-07T09:56:23;10.82;;;5.00;;
35990;SDS011;22064;42.672;23.282;2023-05-07T09:59:14;10.60;;;5.90;;
35990;SDS011;22064;42.672;23.282;2023-05-07T10:02:02;12.35;;;5.97;;
35990;SDS011;22064;42.672;23.282;2023-05-07T10:04:49;12.18;;;6.18;;
35990;SDS011;22064;42.672;23.282;2023-05-07T10:07:40;11.63;;;6.85;;
35990;SDS011;22064;42.672;23.282;2023-05-07T10:10:28;12.48;;;6.65;;
35990;SDS011;22064;42.672;23.282;2023-05-07T10:13:16;11.00;;;6.32;;
35990;SDS011;22064;42.672;23.282;2023-05-07T10:16:07;12.52;;;6.45;;
35990;SDS011;22064;42.672;23.282;2023-05-07T10:18:59;11.20;;;6.30;;
35990;SDS011;22064;42.672;23.282;2023-05-07T10:21:56;11.43;;;5.93;;
35990;SDS011;22064;42.672;23.282;2023-05-07T10:24:49;8.57;;;5.75;;
35990;SDS011;22064;42.672;23.282;2023-05-07T10:27:40;11.57;;;5.70;;
35990;SDS011;22064;42.672;23.282;2023-05-07T10:33:50;8.75;;;5.05;;
35990;SDS011;22064;42.672;23.282;2023-05-07T10:36:39;11.30;;;5.78;;
35990;SDS011;22064;42.672;23.282;2023-05-07T10:39:26;8.32;;;5.00;;
35990;SDS011;22064;42.672;23.282;2023-05-07T10:42:13;12.23;;;5.70;;
35990;SDS011;22064;42.672;23.282;2023-05-07T10:45:14;8.88;;;4.60;;
35990;SDS011;22064;42.672;23.282;2023-05-07T10:48:13;9.00;;;5.10;;
35990;SDS011;22064;42.672;23.282;2023-05-07T10:51:19;7.90;;;5.15;;
35990;SDS011;22064;42.672;23.282;2023-05-07T10:57:31;10.70;;;5.25;;
35990;SDS011;22064;42.672;23.282;2023-05-07T11:00:58;7.65;;;5.18;;
35990;SDS011;22064;42.672;23.282;2023-05-07T11:04:13;8.65;;;5.38;;
35990;SDS011;22064;42.672;23.282;2023-05-07T11:15:41;10.70;;;5.15;;
35990;SDS011;22064;42.672;23.282;2023-05-07T11:21:38;7.05;;;4.97;;
35990;SDS011;22064;42.672;23.282;2023-05-07T11:24:59;15.02;;;7.57;;
35990;SDS011;22064;42.672;23.282;2023-05-07T11:27:46;8.13;;;4.50;;
35990;SDS011;22064;42.672;23.282;2023-05-07T11:30:33;5.78;;;4.20;;
35990;SDS011;22064;42.672;23.282;2023-05-07T11:33:20;6.30;;;4.20;;
35990;SDS011;22064;42.672;23.282;2023-05-07T11:36:10;5.80;;;4.15;;
35990;SDS011;22064;42.672;23.282;2023-05-07T11:39:02;5.90;;;4.47;;
35990;SDS011;22064;42.672;23.282;2023-05-07T11:41:48;6.07;;;4.45;;
35990;SDS011;22064;42.672;23.282;2023-05-07T11:44:41;8.73;;;5.10;;
35990;SDS011;22064;42.672;23.282;2023-05-07T11:47:31;6.95;;;4.40;;
35990;SDS011;22064;42.672;23.282;2023-05-07T11:50:18;7.57;;;4.10;;
35990;SDS011;22064;42.672;23.282;2023-05-07T11:53:07;5.18;;;4.22;;
35990;SDS011;22064;42.672;23.282;2023-05-07T11:55:56;7.30;;;4.40;;
35990;SDS011;22064;42.672;23.282;2023-05-07T11:58:43;8.85;;;4.40;;
35990;SDS011;22064;42.672;23.282;2023-05-07T12:01:30;5.95;;;4.20;;
35990;SDS011;22064;42.672;23.282;2023-05-07T12:04:19;6.50;;;4.30;;
35990;SDS011;22064;42.672;23.282;2023-05-07T12:07:10;9.30;;;4.65;;
35990;SDS011;22064;42.672;23.282;2023-05-07T12:10:03;5.97;;;4.20;;
35990;SDS011;22064;42.672;23.282;2023-05-07T12:12:51;7.43;;;4.15;;
35990;SDS011;22064;42.672;23.282;2023-05-07T12:15:37;8.63;;;4.68;;
35990;SDS011;22064;42.672;23.282;2023-05-07T12:18:23;4.85;;;4.03;;
35990;SDS011;22064;42.672;23.282;2023-05-07T12:21:10;8.10;;;4.30;;
35990;SDS011;22064;42.672;23.282;2023-05-07T12:23:56;5.13;;;4.13;;
35990;SDS011;22064;42.672;23.282;2023-05-07T12:26:43;5.72;;;4.10;;
35990;SDS011;22064;42.672;23.282;2023-05-07T12:29:29;7.85;;;3.95;;
35990;SDS011;22064;42.672;23.282;2023-05-07T12:32:16;8.52;;;3.78;;
35990;SDS011;22064;42.672;23.282;2023-05-07T12:35:05;6.80;;;3.70;;
35990;SDS011;22064;42.672;23.282;2023-05-07T12:37:55;8.30;;;3.80;;
35990;SDS011;22064;42.672;23.282;2023-05-07T12:40:43;6.75;;;3.75;;
35990;SDS011;22064;42.672;23.282;2023-05-07T12:43:30;5.72;;;3.90;;
35990;SDS011;22064;42.672;23.282;2023-05-07T12:46:16;6.00;;;4.00;;
35990;SDS011;22064;42.672;23.282;2023-05-07T12:49:04;4.47;;;3.50;;
35990;SDS011;22064;42.672;23.282;2023-05-07T12:51:50;6.70;;;3.80;;
35990;SDS011;22064;42.672;23.282;2023-05-07T12:54:37;5.53;;;3.88;;
35990;SDS011;22064;42.672;23.282;2023-05-07T12:57:23;6.40;;;3.65;;
35990;SDS011;22064;42.672;23.282;2023-05-07T13:00:10;6.20;;;3.90;;
35990;SDS011;22064;42.672;23.282;2023-05-07T13:02:56;5.95;;;3.78;;
35990;SDS011;22064;42.672;23.282;2023-05-07T13:05:44;7.72;;;3.40;;
35990;SDS011;22064;42.672;23.282;2023-05-07T13:08:33;6.93;;;3.67;;
35990;SDS011;22064;42.672;23.282;2023-05-07T13:11:21;4.00;;;3.20;;
35990;SDS011;22064;42.672;23.282;2023-05-07T13:14:08;5.47;;;3.60;;
35990;SDS011;22064;42.672;23.282;2023-05-07T13:16:54;4.60;;;3.40;;
35990;SDS011;22064;42.672;23.282;2023-05-07T13:19:40;7.70;;;4.13;;
35990;SDS011;22064;42.672;23.282;2023-05-07T13:22:26;4.97;;;3.90;;
35990;SDS011;22064;42.672;23.282;2023-05-07T13:25:12;7.05;;;3.85;;
35990;SDS011;22064;42.672;23.282;2023-05-07T13:27:58;5.93;;;3.78;;
35990;SDS011;22064;42.672;23.282;2023-05-07T13:30:44;5.45;;;3.58;;
35990;SDS011;22064;42.672;23.282;2023-05-07T13:33:30;5.10;;;4.03;;
35990;SDS011;22064;42.672;23.282;2023-05-07T13:36:16;7.75;;;3.80;;
35990;SDS011;22064;42.672;23.282;2023-05-07T13:39:02;4.03;;;3.63;;
35990;SDS011;22064;42.672;23.282;2023-05-07T13:41:49;5.80;;;3.60;;
35990;SDS011;22064;42.672;23.282;2023-05-07T13:44:35;7.82;;;3.97;;
35990;SDS011;22064;42.672;23.282;2023-05-07T13:47:21;5.18;;;3.88;;
35990;SDS011;22064;42.672;23.282;2023-05-07T13:50:07;4.32;;;3.50;;
35990;SDS011;22064;42.672;23.282;2023-05-07T13:52:54;10.35;;;4.57;;
35990;SDS011;22064;42.672;23.282;2023-05-07T13:55:40;6.05;;;3.58;;
35990;SDS011;22064;42.672;23.282;2023-05-07T13:58:26;4.95;;;3.88;;
35990;SDS011;22064;42.672;23.282;2023-05-07T14:01:12;7.93;;;3.78;;
35990;SDS011;22064;42.672;23.282;2023-05-07T14:03:58;5.63;;;3.72;;
35990;SDS011;22064;42.672;23.282;2023-05-07T14:06:44;5.00;;;3.90;;
35990;SDS011;22064;42.672;23.282;2023-05-07T14:09:30;4.70;;;3.58;;
35990;SDS011;22064;42.672;23.282;2023-05-07T14:12:16;6.38;;;3.78;;
35990;SDS011;22064;42.672;23.282;2023-05-07T14:15:03;4.40;;;3.60;;
35990;SDS011;22064;42.672;23.282;2023-05-07T14:17:49;5.18;;;3.70;;
35990;SDS011;22064;42.672;23.282;2023-05-07T14:20:35;5.68;;;3.88;;
35990;SDS011;22064;42.672;23.282;2023-05-07T14:23:23;7.28;;;3.45;;
35990;SDS011;22064;42.672;23.282;2023-05-07T14:26:11;7.35;;;4.07;;
35990;SDS011;22064;42.672;23.282;2023-05-07T14:28:58;5.10;;;3.60;;
35990;SDS011;22064;42.672;23.282;2023-05-07T14:31:44;4.78;;;3.80;;
35990;SDS011;22064;42.672;23.282;2023-05-07T14:34:31;5.70;;;3.92;;
35990;SDS011;22064;42.672;23.282;2023-05-07T14:37:17;5.80;;;4.00;;
35990;SDS011;22064;42.672;23.282;2023-05-07T14:40:05;5.85;;;3.90;;
35990;SDS011;22064;42.672;23.282;2023-05-07T14:42:51;6.40;;;3.65;;
35990;SDS011;22064;42.672;23.282;2023-05-07T14:45:37;7.32;;;3.95;;
35990;SDS011;22064;42.672;23.282;2023-05-07T14:48:24;4.13;;;3.72;;
35990;SDS011;22064;42.672;23.282;2023-05-07T14:51:09;6.03;;;3.72;;
35990;SDS011;22064;42.672;23.282;2023-05-07T14:53:56;5.55;;;3.58;;
35990;SDS011;22064;42.672;23.282;2023-05-07T14:56:42;6.75;;;3.90;;
35990;SDS011;22064;42.672;23.282;2023-05-07T14:59:28;4.88;;;3.50;;
35990;SDS011;22064;42.672;23.282;2023-05-07T15:02:14;4.97;;;3.47;;
35990;SDS011;22064;42.672;23.282;2023-05-07T15:05:00;5.60;;;3.80;;
35990;SDS011;22064;42.672;23.282;2023-05-07T15:07:46;3.83;;;3.42;;
35990;SDS011;22064;42.672;23.282;2023-05-07T15:10:34;6.20;;;3.35;;
35990;SDS011;22064;42.672;23.282;2023-05-07T15:13:26;6.65;;;3.80;;
35990;SDS011;22064;42.672;23.282;2023-05-07T15:16:12;6.43;;;3.50;;
35990;SDS011;22064;42.672;23.282;2023-05-07T15:18:58;5.30;;;3.80;;
35990;SDS011;22064;42.672;23.282;2023-05-07T15:21:44;5.35;;;3.22;;
35990;SDS011;22064;42.672;23.282;2023-05-07T15:24:30;7.10;;;3.90;;
35990;SDS011;22064;42.672;23.282;2023-05-07T15:27:17;5.03;;;3.58;;
35990;SDS011;22064;42.672;23.282;2023-05-07T15:30:03;6.60;;;3.45;;
35990;SDS011;22064;42.672;23.282;2023-05-07T15:32:51;7.18;;;3.60;;
35990;SDS011;22064;42.672;23.282;2023-05-07T15:35:37;5.97;;;3.55;;
35990;SDS011;22064;42.672;23.282;2023-05-07T15:38:23;5.60;;;3.60;;
35990;SDS011;22064;42.672;23.282;2023-05-07T15:41:09;6.50;;;3.58;;
35990;SDS011;22064;42.672;23.282;2023-05-07T15:43:55;4.55;;;3.50;;
35990;SDS011;22064;42.672;23.282;2023-05-07T15:46:41;6.53;;;3.50;;
35990;SDS011;22064;42.672;23.282;2023-05-07T15:49:27;5.28;;;3.50;;
35990;SDS011;22064;42.672;23.282;2023-05-07T15:52:13;5.45;;;3.70;;
35990;SDS011;22064;42.672;23.282;2023-05-07T15:55:00;4.30;;;3.47;;
35990;SDS011;22064;42.672;23.282;2023-05-07T15:57:47;5.85;;;3.50;;
35990;SDS011;22064;42.672;23.282;2023-05-07T16:00:33;5.20;;;3.58;;
35990;SDS011;22064;42.672;23.282;2023-05-07T16:03:20;6.45;;;3.95;;
35990;SDS011;22064;42.672;23.282;2023-05-07T16:06:08;4.05;;;3.40;;
35990;SDS011;22064;42.672;23.282;2023-05-07T16:08:56;4.65;;;3.38;;
35990;SDS011;22064;42.672;23.282;2023-05-07T16:11:42;4.55;;;3.42;;
35990;SDS011;22064;42.672;23.282;2023-05-07T16:14:28;3.50;;;3.20;;
35990;SDS011;22064;42.672;23.282;2023-05-07T16:17:14;5.90;;;3.75;;
35990;SDS011;22064;42.672;23.282;2023-05-07T16:20:01;5.50;;;3.47;;
35990;SDS011;22064;42.672;23.282;2023-05-07T16:22:50;8.02;;;3.22;;
35990;SDS011;22064;42.672;23.282;2023-05-07T16:25:36;7.25;;;3.35;;
35990;SDS011;22064;42.672;23.282;2023-05-07T16:28:22;6.78;;;3.80;;
35990;SDS011;22064;42.672;23.282;2023-05-07T16:31:08;3.85;;;3.40;;
35990;SDS011;22064;42.672;23.282;2023-05-07T16:33:54;4.88;;;3.40;;
35990;SDS011;22064;42.672;23.282;2023-05-07T16:36:40;6.40;;;3.60;;
35990;SDS011;22064;42.672;23.282;2023-05-07T16:39:26;5.72;;;3.60;;